Impacts METAR Board
IDs:

KBWD - Brownwood Muni, TX, US

Updated at: 0500 UTC 19 Aug 2019
Potential Impact None Slight Moderate High
Time 18/17Z 18/18Z 18/19Z 18/20Z 18/21Z 18/22Z 18/23Z 19/00Z 19/01Z 19/02Z 19/03Z 19/04Z 19/05Z
Temp93 97 99 100 100 100 100 99 93 90 88 88 86
Dewpt64 64 63 61 59 57 55 55 55 57 61 63 63
Altim29.91 29.90 29.89 29.87 29.86 29.84 29.84 29.84 29.84 29.86 29.88 29.91 29.92
VIS10 10 10 10 10 10 10 10 10 10 10 10 10
CIG-- -- -- -- -- -- -- -- -- 49 -- -- --
CoverCLRCLRCLRCLRCLRCLRCLRCLRCLRBKNFEWFEWSCT
FltCatVFRVFRVFRVFRVFRVFRVFRVFRVFRVFRVFRVFRVFR
WX--------------------------
WDir180170190140150130130120130130140140150
WSpd7 10 8 11 10 8 11 11 10 6 8 9 10
WGst16 16 -- 17 -- 15 16 14 -- -- -- -- --
Raw hourly METARs
KBWD 181655Z AUTO 18007G16KT 10SM CLR 34/18 A2991 RMK AO1
KBWD 181755Z AUTO 17010G16KT 10SM CLR 36/18 A2990 RMK AO1
KBWD 181855Z AUTO 19008KT 10SM CLR 37/17 A2989 RMK AO1
KBWD 181955Z AUTO 14011G17KT 10SM CLR 38/16 A2987 RMK AO1
KBWD 182055Z AUTO 15010KT 120V190 10SM CLR 38/15 A2986 RMK AO1
KBWD 182155Z AUTO 13008G15KT 10SM CLR 38/14 A2984 RMK AO1
KBWD 182255Z AUTO 13011G16KT 10SM CLR 38/13 A2984 RMK AO1
KBWD 182355Z AUTO 12011G14KT 10SM CLR 37/13 A2984 RMK AO1
KBWD 190055Z AUTO 13010KT 10SM CLR 34/13 A2984 RMK AO1
KBWD 190155Z AUTO 13006KT 10SM FEW036 BKN049 32/14 A2986 RMK AO1
KBWD 190255Z AUTO 14008KT 10SM FEW046 31/16 A2988 RMK AO1
KBWD 190355Z AUTO 14009KT 10SM FEW050 31/17 A2991 RMK AO1
KBWD 190455Z AUTO 15010KT 10SM FEW044 SCT050 30/17 A2992 RMK AO1



Page loaded:  05:36 UTC  |   10:36 PM Pacific  |   11:36 PM Mountain  |   12:36 AM Central  |   01:36 AM Eastern

 

ADVISORIES

FORECASTS

FORECASTS

OBSERVATIONS

USER TOOLS

ABOUT US